createdAt,value
2018-11-13T00:01:01.690Z,1013.41
2018-11-13T00:16:01.628Z,1013.44
2018-11-13T00:31:01.939Z,1013.62
2018-11-13T00:46:01.869Z,1013.78
2018-11-13T00:56:01.671Z,1013.71
2018-11-13T01:11:01.651Z,1013.74
2018-11-13T01:26:02.389Z,1013.75
2018-11-13T01:41:01.618Z,1013.91
2018-11-13T01:56:02.623Z,1014.02
2018-11-13T02:01:01.632Z,1014.02
2018-11-13T02:11:01.725Z,1013.98
2018-11-13T02:26:02.556Z,1013.78
2018-11-13T02:41:01.616Z,1013.79
2018-11-13T02:51:01.797Z,1013.65
2018-11-13T03:06:01.687Z,1013.7
2018-11-13T03:21:01.798Z,1013.8
2018-11-13T03:36:01.633Z,1013.9
2018-11-13T03:51:01.729Z,1014.02
2018-11-13T04:06:01.676Z,1013.74
2018-11-13T04:21:02.408Z,1013.64
2018-11-13T04:36:01.691Z,1013.75
2018-11-13T04:51:01.979Z,1013.97
2018-11-13T05:06:02.734Z,1013.55
2018-11-13T05:16:01.667Z,1013.76
2018-11-13T05:26:01.607Z,1013.78
2018-11-13T05:31:01.641Z,1013.78
2018-11-13T05:36:01.556Z,1013.82
2018-11-13T05:46:01.629Z,1013.89
2018-11-13T05:52:01.693Z,1013.89
2018-11-13T06:07:01.732Z,1013.95
2018-11-13T06:22:01.688Z,1013.96
2018-11-13T06:37:01.687Z,1014.0
2018-11-13T06:52:01.749Z,1014.07
2018-11-13T07:07:02.658Z,1014.02
2018-11-13T07:22:01.769Z,1014.05
2018-11-13T07:37:01.753Z,1014.03
2018-11-13T07:52:01.904Z,1014.06
2018-11-13T08:02:01.835Z,1014.06
2018-11-13T08:17:01.766Z,1014.0
2018-11-13T08:32:01.714Z,1014.18
2018-11-13T08:37:01.670Z,1014.04
2018-11-13T08:47:01.705Z,1014.11
2018-11-13T08:52:01.929Z,1014.11
2018-11-13T08:57:01.706Z,1014.13
2018-11-13T09:02:01.789Z,1014.13
2018-11-13T09:07:01.757Z,1014.25
2018-11-13T09:17:01.828Z,1014.35
2018-11-13T09:22:01.589Z,1014.35
2018-11-13T09:27:01.688Z,1014.43
2018-11-13T09:37:01.722Z,1014.51
2018-11-13T09:52:01.714Z,1014.58
2018-11-13T10:07:01.865Z,1014.54
2018-11-13T10:22:01.709Z,1014.51
2018-11-13T10:37:01.863Z,1014.55
2018-11-13T10:52:01.724Z,1014.5
2018-11-13T11:02:01.725Z,1014.5
2018-11-13T11:17:02.000Z,1014.54
2018-11-13T11:27:01.790Z,1014.58
2018-11-13T11:37:01.709Z,1014.67
2018-11-13T11:42:01.709Z,1014.67
2018-11-13T11:57:01.708Z,1014.55
2018-11-13T12:07:01.743Z,1014.42
2018-11-13T12:22:01.689Z,1014.44
2018-11-13T12:37:01.765Z,1014.53
2018-11-13T12:42:01.859Z,1014.53
2018-11-13T12:52:01.733Z,1014.47
2018-11-13T13:02:01.893Z,1014.5
2018-11-13T13:07:01.702Z,1014.66
2018-11-13T13:17:01.836Z,1014.54
2018-11-13T13:23:01.710Z,1014.54
2018-11-13T13:33:01.765Z,1014.6
2018-11-13T13:43:01.727Z,1014.67
2018-11-13T13:48:01.722Z,1014.68
2018-11-13T14:03:01.749Z,1014.72
2018-11-13T14:08:01.790Z,1014.78
2018-11-13T14:23:01.773Z,1014.7
2018-11-13T14:38:01.889Z,1015.08
2018-11-13T14:48:01.711Z,1015.06
2018-11-13T15:03:01.754Z,1015.24
2018-11-13T15:18:01.771Z,1015.3
2018-11-13T15:33:01.719Z,1015.4
2018-11-13T15:48:01.715Z,1015.6
2018-11-13T15:58:01.717Z,1015.64
2018-11-13T16:08:01.693Z,1015.81
2018-11-13T16:23:01.791Z,1015.96
2018-11-13T16:38:01.842Z,1016.04
2018-11-13T16:48:01.785Z,1016.24
2018-11-13T17:03:01.735Z,1016.27
2018-11-13T17:18:01.627Z,1016.61
2018-11-13T17:33:01.683Z,1016.64
2018-11-13T17:43:01.603Z,1016.69
2018-11-13T17:58:01.621Z,1016.92
2018-11-13T18:13:01.634Z,1016.97
2018-11-13T18:23:01.599Z,1017.04
2018-11-13T18:38:01.929Z,1017.21
2018-11-13T18:53:01.617Z,1017.31
2018-11-13T19:08:01.771Z,1017.36
2018-11-13T19:23:01.605Z,1017.44
2018-11-13T19:38:03.256Z,1017.82
2018-11-13T19:53:01.686Z,1017.76
2018-11-13T20:08:01.621Z,1017.99
2018-11-13T20:13:01.609Z,1017.99
2018-11-13T20:28:01.674Z,1018.19
2018-11-13T20:43:01.781Z,1018.23
2018-11-13T20:59:01.606Z,1018.52
2018-11-13T21:14:01.711Z,1018.67
2018-11-13T21:30:02.242Z,1018.79
2018-11-13T21:45:01.629Z,1018.97
2018-11-13T22:00:01.726Z,1019.09
2018-11-13T22:10:01.741Z,1019.32
2018-11-13T22:15:01.784Z,1019.42
2018-11-13T22:30:02.652Z,1019.58
2018-11-13T22:35:01.547Z,1019.62
2018-11-13T22:45:01.631Z,1019.74
2018-11-13T22:50:01.599Z,1019.74
2018-11-13T23:00:01.818Z,1019.83
2018-11-13T23:15:01.913Z,1020.14
2018-11-13T23:30:01.640Z,1020.45
2018-11-13T23:45:01.652Z,1020.58
